Terminal Aerodrome Forecast
Issued by NWS

Home | Current Version | Previous Version | Graphics & Text | Print | Product List | Glossary On
Versions: 1 2 3 4 5 6 7 8 9 10 11 12 13
000
FTUS45 KGGW 301723
TAFSDY
TAF
KSDY 301723Z 3018/3118 33007KT 6SM FU BKN140
     FM310100 VRB06KT 6SM FU SCT150
     FM310900 31016KT 6SM FU SCT060
      AMD LTD TO CLD VIS AND WIND=

USA.gov is the U.S. government's official web portal to all federal, state and local government web resources and services.